AirNav   MODERNIZE NOT PRIVATIZE ATC
 
 947 users online  

7PA1 Warren Airpark
Warren, Pennsylvania, USA

GOING TO WARREN?


FAA INFORMATION EFFECTIVE 20 JULY 2017

Location

FAA Identifier: 7PA1
Lat/Long: 41-51-57.2120N / 079-12-22.1680W
41-51.953533N / 079-12.369467W
41.8658922 / -79.2061578
(estimated)
Elevation: 1790 ft. / 546 m (estimated)
Variation: 09W (1985)
From city: 3 miles SE of WARREN, PA
Time zone: UTC -4 (UTC -5 during Standard Time)
Zip code: 16365

Airport Operations

Airport use: Private use. Permission required prior to landing
Activation date: 07/1991
Control tower: no
ARTCC: CLEVELAND CENTER
FSS: ALTOONA FLIGHT SERVICE STATION
Attendance: UNATNDD
Wind indicator: yes
Segmented circle: yes
Lights: ACTVT LIRL RY 06/24 - 122.9.

Airport Communications

WX AWOS-3 at JHW (17 nm N): 118.425 (716-664-6005)

Nearby radio navigation aids

VOR radial/distance  VOR name  Freq  Var
TDTr055/13.2TIDIOUTE VORTAC117.6009W
JHWr198/19.7JAMESTOWN VOR/DME114.7007W
BFDr287/26.7BRADFORD VOR/DME116.6007W
DKKr182/37.6DUNKIRK VORTAC116.2007W
FKLr055/(38.8)FRANKLIN VOR109.6006W

 
NDB name  Hdg/Dist  Freq  Var  ID
CORRY108/20.025810WORJ --- .-. .---

Airport Services

Runway Information

Runway 6/24

Dimensions: 1900 x 100 ft. / 579 x 30 m
Surface: turf, in good condition
Runway edge lights: low intensity
RUNWAY 6  RUNWAY 24
Traffic pattern: leftleft
Displaced threshold: 100 ft.200 ft.
Obstructions: none51 ft. pline, 850 ft. from runway

Airport Ownership and Management from official FAA records

Ownership: Privately-owned
Owner: EMORY J. MAHAN
2776 PENNA AVE WEST
WARREN, PA 16365
Phone 814-726-2900
Manager: EMORY J. MAHAN
2776 PENNA AVE WEST
WARREN, PA 16365
Phone 814-726-2900

Airport Operational Statistics

Aircraft based on the field: 5
Single engine airplanes: 5
    

Instrument Procedures

There are no published instrument procedures at 7PA1.

Some nearby airports with instrument procedures:

KJHW - Chautauqua County/Jamestown Airport (17 nm N)
8G2 - Corry-Lawrence Airport (20 nm W)
KBFD - Bradford Regional Airport (26 nm E)
6G1 - Titusville Airport (28 nm SW)
KDKK - Chautauqua County/Dunkirk Airport (38 nm N)
 
Loc | Ops | Rwys | IFR | FBO | Links
Com | Nav | Svcs | Stats | Notes


 
Area around 7PA1 (Warren Airpark)
 
Road maps at: MapQuest Bing Google
 
Aerial photo
No photo
 
Sectional chart

 
Airport distance calculator
Flying to Warren Airpark? Find the distance to fly.

From to 7PA1

Sunrise and sunset
Times for 27-Jul-2017
 Local
(UTC-4)
 Zulu
(UTC)
Morning civil twilight05:3509:35
Sunrise06:0710:07
Sunset20:4000:40
Evening civil twilight21:1201:12

Current date and time
Zulu (UTC)  27-Jul-2017 23:51:55
Local (UTC-4)  27-Jul-2017 19:51:55
 
METAR
KJHW 
16nm N 
272335Z AUTO 35005KT 10SM BKN110 22/17 A2993 RMK AO1
8G2 
20nm W 
SuperAWOS
272255Z AUTO 00000KT 10SM 23/19 A3001
KBFD 
26nm E 
272253Z AUTO 05005KT 10SM FEW120 24/18 A2994 RMK AO2 SLP123 T02390183
TAF
KJHW 
16nm N 
272127Z 2721/2818 01006KT P6SM SCT060 BKN100 FM280200 04004KT P6SM SCT100 FM280800 05004KT 2SM BR FEW100 TEMPO 2808/2812 1SM BR SCT015 FM281300 06008KT P6SM BKN040 AMD LTD TO CLD VIS AND WIND
NOTAMs
Click for the latest NOTAMs
NOTAMs are issued by the DoD/FAA and will open in a separate window not controlled by AirNav.

 

 
 

Would you like to see your business listed on this page?

 If your business provides an interesting product or service to pilots, flight crews, aircraft, or users of the Warren Airpark, you should consider listing it here.  To start the listing process, click on the button below
 
Add a business
 

Other Pages about Warren Airpark

Update a link
 
Copyright © AirNav, LLC. All rights reserved. Privacy Policy  Contact